sensor_id;sensor_type;location;lat;lon;timestamp;temperature;humidity
24250;DHT22;12379;49.820;8.648;2023-08-21T00:01:28;23.80;99.90
24250;DHT22;12379;49.820;8.648;2023-08-21T00:03:54;23.70;99.90
24250;DHT22;12379;49.820;8.648;2023-08-21T00:06:20;23.70;99.90
24250;DHT22;12379;49.820;8.648;2023-08-21T00:08:45;23.70;99.90
24250;DHT22;12379;49.820;8.648;2023-08-21T00:11:11;23.60;99.90
24250;DHT22;12379;49.820;8.648;2023-08-21T00:13:37;23.50;99.90
24250;DHT22;12379;49.820;8.648;2023-08-21T00:16:03;23.40;99.90
24250;DHT22;12379;49.820;8.648;2023-08-21T00:18:31;23.30;99.90
24250;DHT22;12379;49.820;8.648;2023-08-21T00:20:57;23.30;99.90
24250;DHT22;12379;49.820;8.648;2023-08-21T00:23:22;23.40;99.90
24250;DHT22;12379;49.820;8.648;2023-08-21T00:25:48;23.40;99.90
24250;DHT22;12379;49.820;8.648;2023-08-21T00:28:14;23.30;99.90
24250;DHT22;12379;49.820;8.648;2023-08-21T00:30:42;23.30;99.90
24250;DHT22;12379;49.820;8.648;2023-08-21T00:33:07;23.30;99.90
24250;DHT22;12379;49.820;8.648;2023-08-21T00:35:33;23.30;99.90
24250;DHT22;12379;49.820;8.648;2023-08-21T00:37:58;23.30;99.90
24250;DHT22;12379;49.820;8.648;2023-08-21T00:40:24;23.30;99.90
24250;DHT22;12379;49.820;8.648;2023-08-21T00:42:50;23.20;99.90
24250;DHT22;12379;49.820;8.648;2023-08-21T00:45:15;23.20;99.90
24250;DHT22;12379;49.820;8.648;2023-08-21T00:47:42;23.20;99.90
24250;DHT22;12379;49.820;8.648;2023-08-21T00:50:09;23.20;99.90
24250;DHT22;12379;49.820;8.648;2023-08-21T00:52:38;23.10;99.90
24250;DHT22;12379;49.820;8.648;2023-08-21T00:55:04;23.10;99.90
24250;DHT22;12379;49.820;8.648;2023-08-21T00:57:30;23.00;99.90
24250;DHT22;12379;49.820;8.648;2023-08-21T00:59:56;23.00;99.90
24250;DHT22;12379;49.820;8.648;2023-08-21T01:02:22;22.90;99.90
24250;DHT22;12379;49.820;8.648;2023-08-21T01:04:47;23.00;99.90
24250;DHT22;12379;49.820;8.648;2023-08-21T01:07:13;23.00;99.90
24250;DHT22;12379;49.820;8.648;2023-08-21T01:09:57;23.10;99.90
24250;DHT22;12379;49.820;8.648;2023-08-21T01:12:45;23.20;99.90
24250;DHT22;12379;49.820;8.648;2023-08-21T01:15:14;23.20;99.90
24250;DHT22;12379;49.820;8.648;2023-08-21T01:17:40;23.20;99.90
24250;DHT22;12379;49.820;8.648;2023-08-21T01:20:07;23.20;99.90
24250;DHT22;12379;49.820;8.648;2023-08-21T01:22:51;23.20;99.90
24250;DHT22;12379;49.820;8.648;2023-08-21T01:25:17;23.30;99.90
24250;DHT22;12379;49.820;8.648;2023-08-21T01:27:45;23.30;99.90
24250;DHT22;12379;49.820;8.648;2023-08-21T01:30:11;23.30;99.90
24250;DHT22;12379;49.820;8.648;2023-08-21T01:32:59;23.30;99.90
24250;DHT22;12379;49.820;8.648;2023-08-21T01:35:26;23.30;99.90
24250;DHT22;12379;49.820;8.648;2023-08-21T01:37:52;23.30;99.90
24250;DHT22;12379;49.820;8.648;2023-08-21T01:40:22;23.20;99.90
24250;DHT22;12379;49.820;8.648;2023-08-21T01:42:49;23.20;99.90
24250;DHT22;12379;49.820;8.648;2023-08-21T01:45:15;23.20;99.90
24250;DHT22;12379;49.820;8.648;2023-08-21T01:47:40;23.20;99.90
24250;DHT22;12379;49.820;8.648;2023-08-21T01:50:06;23.20;99.90
24250;DHT22;12379;49.820;8.648;2023-08-21T01:52:32;23.30;99.90
24250;DHT22;12379;49.820;8.648;2023-08-21T01:54:58;23.30;99.90
24250;DHT22;12379;49.820;8.648;2023-08-21T01:57:24;23.20;99.90
24250;DHT22;12379;49.820;8.648;2023-08-21T01:59:49;23.20;99.90
24250;DHT22;12379;49.820;8.648;2023-08-21T02:02:15;23.10;99.90
24250;DHT22;12379;49.820;8.648;2023-08-21T02:04:40;22.90;99.90
24250;DHT22;12379;49.820;8.648;2023-08-21T02:07:06;23.00;99.90
24250;DHT22;12379;49.820;8.648;2023-08-21T02:09:32;23.00;99.90
24250;DHT22;12379;49.820;8.648;2023-08-21T02:11:58;23.00;99.90
24250;DHT22;12379;49.820;8.648;2023-08-21T02:14:24;23.00;99.90
24250;DHT22;12379;49.820;8.648;2023-08-21T02:16:49;23.00;99.90
24250;DHT22;12379;49.820;8.648;2023-08-21T02:19:15;23.00;99.90
24250;DHT22;12379;49.820;8.648;2023-08-21T02:21:40;23.00;99.90
24250;DHT22;12379;49.820;8.648;2023-08-21T02:24:06;22.90;99.90
24250;DHT22;12379;49.820;8.648;2023-08-21T02:26:31;22.90;99.90
24250;DHT22;12379;49.820;8.648;2023-08-21T02:28:57;22.80;99.90
24250;DHT22;12379;49.820;8.648;2023-08-21T02:31:23;22.80;99.90
24250;DHT22;12379;49.820;8.648;2023-08-21T02:33:49;22.90;99.90
24250;DHT22;12379;49.820;8.648;2023-08-21T02:36:15;22.90;99.90
24250;DHT22;12379;49.820;8.648;2023-08-21T02:38:41;22.90;99.90
24250;DHT22;12379;49.820;8.648;2023-08-21T02:41:07;23.00;99.90
24250;DHT22;12379;49.820;8.648;2023-08-21T02:43:33;23.00;99.90
24250;DHT22;12379;49.820;8.648;2023-08-21T02:45:58;23.00;99.90
24250;DHT22;12379;49.820;8.648;2023-08-21T02:48:24;22.90;99.90
24250;DHT22;12379;49.820;8.648;2023-08-21T02:50:50;22.80;99.90
24250;DHT22;12379;49.820;8.648;2023-08-21T02:53:15;22.80;99.90
24250;DHT22;12379;49.820;8.648;2023-08-21T02:55:41;22.80;99.90
24250;DHT22;12379;49.820;8.648;2023-08-21T02:58:06;22.70;99.90
24250;DHT22;12379;49.820;8.648;2023-08-21T03:00:32;22.70;99.90
24250;DHT22;12379;49.820;8.648;2023-08-21T03:02:58;22.70;99.90
24250;DHT22;12379;49.820;8.648;2023-08-21T03:05:23;22.60;99.90
24250;DHT22;12379;49.820;8.648;2023-08-21T03:07:49;22.50;99.90
24250;DHT22;12379;49.820;8.648;2023-08-21T03:10:14;22.50;99.90
24250;DHT22;12379;49.820;8.648;2023-08-21T03:12:40;22.50;99.90
24250;DHT22;12379;49.820;8.648;2023-08-21T03:15:06;22.50;99.90
24250;DHT22;12379;49.820;8.648;2023-08-21T03:17:32;22.50;99.90
24250;DHT22;12379;49.820;8.648;2023-08-21T03:19:58;22.50;99.90
24250;DHT22;12379;49.820;8.648;2023-08-21T03:22:23;22.50;99.90
24250;DHT22;12379;49.820;8.648;2023-08-21T03:24:49;22.50;99.90
24250;DHT22;12379;49.820;8.648;2023-08-21T03:27:18;22.50;99.90
24250;DHT22;12379;49.820;8.648;2023-08-21T03:29:44;22.40;99.90
24250;DHT22;12379;49.820;8.648;2023-08-21T03:32:15;22.40;99.90
24250;DHT22;12379;49.820;8.648;2023-08-21T03:34:41;22.40;99.90
24250;DHT22;12379;49.820;8.648;2023-08-21T03:37:06;22.30;99.90
24250;DHT22;12379;49.820;8.648;2023-08-21T03:39:32;22.30;99.90
24250;DHT22;12379;49.820;8.648;2023-08-21T03:41:58;22.30;99.90
24250;DHT22;12379;49.820;8.648;2023-08-21T03:44:24;22.30;99.90
24250;DHT22;12379;49.820;8.648;2023-08-21T03:46:49;22.20;99.90
24250;DHT22;12379;49.820;8.648;2023-08-21T03:49:15;22.20;99.90
24250;DHT22;12379;49.820;8.648;2023-08-21T03:51:40;22.20;99.90
24250;DHT22;12379;49.820;8.648;2023-08-21T03:54:06;22.20;99.90
24250;DHT22;12379;49.820;8.648;2023-08-21T03:56:31;22.20;99.90
24250;DHT22;12379;49.820;8.648;2023-08-21T03:58:57;22.20;99.90
24250;DHT22;12379;49.820;8.648;2023-08-21T04:01:23;22.10;99.90
24250;DHT22;12379;49.820;8.648;2023-08-21T04:03:48;22.20;99.90
24250;DHT22;12379;49.820;8.648;2023-08-21T04:06:14;22.20;99.90
24250;DHT22;12379;49.820;8.648;2023-08-21T04:08:39;22.20;99.90
24250;DHT22;12379;49.820;8.648;2023-08-21T04:11:06;22.20;99.90
24250;DHT22;12379;49.820;8.648;2023-08-21T04:13:32;22.20;99.90
24250;DHT22;12379;49.820;8.648;2023-08-21T04:15:57;22.20;99.90
24250;DHT22;12379;49.820;8.648;2023-08-21T04:18:23;22.20;99.90
24250;DHT22;12379;49.820;8.648;2023-08-21T04:20:49;22.10;99.90
24250;DHT22;12379;49.820;8.648;2023-08-21T04:23:15;22.00;99.90
24250;DHT22;12379;49.820;8.648;2023-08-21T04:25:41;22.00;99.90
24250;DHT22;12379;49.820;8.648;2023-08-21T04:28:06;22.00;99.90
24250;DHT22;12379;49.820;8.648;2023-08-21T04:30:33;22.00;99.90
24250;DHT22;12379;49.820;8.648;2023-08-21T04:32:59;22.00;99.90
24250;DHT22;12379;49.820;8.648;2023-08-21T04:35:25;22.00;99.90
24250;DHT22;12379;49.820;8.648;2023-08-21T04:37:50;22.00;99.90
24250;DHT22;12379;49.820;8.648;2023-08-21T04:40:16;22.10;99.90
24250;DHT22;12379;49.820;8.648;2023-08-21T04:42:44;22.00;99.90
24250;DHT22;12379;49.820;8.648;2023-08-21T04:45:10;21.90;99.90
24250;DHT22;12379;49.820;8.648;2023-08-21T04:47:36;21.90;99.90
24250;DHT22;12379;49.820;8.648;2023-08-21T04:50:05;21.80;99.90
24250;DHT22;12379;49.820;8.648;2023-08-21T04:52:30;21.80;99.90
24250;DHT22;12379;49.820;8.648;2023-08-21T04:54:56;21.80;99.90
24250;DHT22;12379;49.820;8.648;2023-08-21T04:57:21;21.80;99.90
24250;DHT22;12379;49.820;8.648;2023-08-21T04:59:47;21.80;99.90
24250;DHT22;12379;49.820;8.648;2023-08-21T05:02:13;21.80;99.90
24250;DHT22;12379;49.820;8.648;2023-08-21T05:04:39;21.90;99.90
24250;DHT22;12379;49.820;8.648;2023-08-21T05:07:05;21.90;99.90
24250;DHT22;12379;49.820;8.648;2023-08-21T05:09:32;21.80;99.90
24250;DHT22;12379;49.820;8.648;2023-08-21T05:11:58;21.90;99.90
24250;DHT22;12379;49.820;8.648;2023-08-21T05:14:48;21.90;99.90
24250;DHT22;12379;49.820;8.648;2023-08-21T05:17:18;21.90;99.90
24250;DHT22;12379;49.820;8.648;2023-08-21T05:20:33;21.80;99.90
24250;DHT22;12379;49.820;8.648;2023-08-21T05:23:14;21.80;99.90
24250;DHT22;12379;49.820;8.648;2023-08-21T05:25:40;21.90;99.90
24250;DHT22;12379;49.820;8.648;2023-08-21T05:28:06;22.00;99.90
24250;DHT22;12379;49.820;8.648;2023-08-21T05:30:32;22.10;99.90
24250;DHT22;12379;49.820;8.648;2023-08-21T05:32:58;22.10;99.90
24250;DHT22;12379;49.820;8.648;2023-08-21T05:35:40;22.20;99.90
24250;DHT22;12379;49.820;8.648;2023-08-21T05:38:15;22.20;99.90
24250;DHT22;12379;49.820;8.648;2023-08-21T05:40:41;22.30;99.90
24250;DHT22;12379;49.820;8.648;2023-08-21T05:43:07;22.30;99.90
24250;DHT22;12379;49.820;8.648;2023-08-21T05:45:33;22.30;99.90
24250;DHT22;12379;49.820;8.648;2023-08-21T05:47:59;22.30;99.90
24250;DHT22;12379;49.820;8.648;2023-08-21T05:50:27;22.40;99.90
24250;DHT22;12379;49.820;8.648;2023-08-21T05:52:53;22.30;99.90
24250;DHT22;12379;49.820;8.648;2023-08-21T05:55:20;22.40;99.90
24250;DHT22;12379;49.820;8.648;2023-08-21T05:57:49;22.50;99.90
24250;DHT22;12379;49.820;8.648;2023-08-21T06:00:15;22.60;99.90
24250;DHT22;12379;49.820;8.648;2023-08-21T06:02:41;22.70;99.90
24250;DHT22;12379;49.820;8.648;2023-08-21T06:05:09;22.80;99.90
24250;DHT22;12379;49.820;8.648;2023-08-21T06:07:35;22.90;99.90
24250;DHT22;12379;49.820;8.648;2023-08-21T06:10:00;23.00;99.90
24250;DHT22;12379;49.820;8.648;2023-08-21T06:12:26;23.20;99.90
24250;DHT22;12379;49.820;8.648;2023-08-21T06:14:51;23.20;99.90
24250;DHT22;12379;49.820;8.648;2023-08-21T06:17:17;23.30;99.90
24250;DHT22;12379;49.820;8.648;2023-08-21T06:19:42;23.40;99.90
24250;DHT22;12379;49.820;8.648;2023-08-21T06:22:08;23.40;99.90
24250;DHT22;12379;49.820;8.648;2023-08-21T06:24:33;23.50;99.90
24250;DHT22;12379;49.820;8.648;2023-08-21T06:26:59;23.50;99.90
24250;DHT22;12379;49.820;8.648;2023-08-21T06:29:25;23.70;99.90
24250;DHT22;12379;49.820;8.648;2023-08-21T06:31:50;23.70;99.90
24250;DHT22;12379;49.820;8.648;2023-08-21T06:34:16;23.90;99.90
24250;DHT22;12379;49.820;8.648;2023-08-21T06:36:41;24.10;99.90
24250;DHT22;12379;49.820;8.648;2023-08-21T06:39:07;24.80;99.90
24250;DHT22;12379;49.820;8.648;2023-08-21T06:41:32;25.80;99.90
24250;DHT22;12379;49.820;8.648;2023-08-21T06:43:58;27.10;99.90
24250;DHT22;12379;49.820;8.648;2023-08-21T06:46:24;27.80;99.90
24250;DHT22;12379;49.820;8.648;2023-08-21T06:48:49;28.60;99.90
24250;DHT22;12379;49.820;8.648;2023-08-21T06:51:18;29.30;99.90
24250;DHT22;12379;49.820;8.648;2023-08-21T06:53:43;30.00;99.90
24250;DHT22;12379;49.820;8.648;2023-08-21T06:56:09;30.40;99.90
24250;DHT22;12379;49.820;8.648;2023-08-21T06:58:34;30.50;99.90
24250;DHT22;12379;49.820;8.648;2023-08-21T07:01:01;30.30;99.90
24250;DHT22;12379;49.820;8.648;2023-08-21T07:03:32;30.20;99.90
24250;DHT22;12379;49.820;8.648;2023-08-21T07:06:00;30.30;99.90
24250;DHT22;12379;49.820;8.648;2023-08-21T07:08:27;30.50;99.90
24250;DHT22;12379;49.820;8.648;2023-08-21T07:10:53;30.50;99.90
24250;DHT22;12379;49.820;8.648;2023-08-21T07:13:23;30.80;99.90
24250;DHT22;12379;49.820;8.648;2023-08-21T07:15:52;30.90;99.90
24250;DHT22;12379;49.820;8.648;2023-08-21T07:18:23;31.00;99.90
24250;DHT22;12379;49.820;8.648;2023-08-21T07:20:52;31.40;99.90
24250;DHT22;12379;49.820;8.648;2023-08-21T07:23:19;31.90;99.70
24250;DHT22;12379;49.820;8.648;2023-08-21T07:25:50;32.00;99.60
24250;DHT22;12379;49.820;8.648;2023-08-21T07:28:24;32.40;99.10
24250;DHT22;12379;49.820;8.648;2023-08-21T07:30:56;32.90;97.30
24250;DHT22;12379;49.820;8.648;2023-08-21T07:33:22;33.10;96.40
24250;DHT22;12379;49.820;8.648;2023-08-21T07:36:02;32.90;96.60
24250;DHT22;12379;49.820;8.648;2023-08-21T07:38:32;33.10;96.20
24250;DHT22;12379;49.820;8.648;2023-08-21T07:41:06;33.80;95.70
24250;DHT22;12379;49.820;8.648;2023-08-21T07:43:33;34.30;94.30
24250;DHT22;12379;49.820;8.648;2023-08-21T07:46:04;34.80;92.40
24250;DHT22;12379;49.820;8.648;2023-08-21T07:48:42;35.10;92.30
24250;DHT22;12379;49.820;8.648;2023-08-21T07:51:08;35.00;91.60
24250;DHT22;12379;49.820;8.648;2023-08-21T07:53:34;35.80;90.50
24250;DHT22;12379;49.820;8.648;2023-08-21T07:56:00;35.70;90.30
24250;DHT22;12379;49.820;8.648;2023-08-21T07:58:30;35.70;89.70
24250;DHT22;12379;49.820;8.648;2023-08-21T08:01:14;35.50;88.70
24250;DHT22;12379;49.820;8.648;2023-08-21T08:03:43;35.70;88.20
24250;DHT22;12379;49.820;8.648;2023-08-21T08:06:11;35.40;88.40
24250;DHT22;12379;49.820;8.648;2023-08-21T08:08:37;35.40;89.80
24250;DHT22;12379;49.820;8.648;2023-08-21T08:11:04;35.90;89.00
24250;DHT22;12379;49.820;8.648;2023-08-21T08:13:32;36.30;86.40
24250;DHT22;12379;49.820;8.648;2023-08-21T08:15:58;36.10;85.70
24250;DHT22;12379;49.820;8.648;2023-08-21T08:18:24;35.60;86.70
24250;DHT22;12379;49.820;8.648;2023-08-21T08:20:49;35.90;87.20
24250;DHT22;12379;49.820;8.648;2023-08-21T08:23:15;35.60;87.20
24250;DHT22;12379;49.820;8.648;2023-08-21T08:25:41;35.60;86.90
24250;DHT22;12379;49.820;8.648;2023-08-21T08:28:06;35.70;87.20
24250;DHT22;12379;49.820;8.648;2023-08-21T08:30:33;35.40;87.40
24250;DHT22;12379;49.820;8.648;2023-08-21T08:32:59;35.40;88.20
24250;DHT22;12379;49.820;8.648;2023-08-21T08:35:36;35.50;88.10
24250;DHT22;12379;49.820;8.648;2023-08-21T08:38:02;35.90;86.30
24250;DHT22;12379;49.820;8.648;2023-08-21T08:40:48;36.20;85.10
24250;DHT22;12379;49.820;8.648;2023-08-21T08:43:16;35.60;84.60
24250;DHT22;12379;49.820;8.648;2023-08-21T08:49:07;34.60;86.60
24250;DHT22;12379;49.820;8.648;2023-08-21T08:51:35;34.50;88.20
24250;DHT22;12379;49.820;8.648;2023-08-21T08:54:08;34.70;86.80
24250;DHT22;12379;49.820;8.648;2023-08-21T08:56:35;34.10;86.40
24250;DHT22;12379;49.820;8.648;2023-08-21T08:59:01;34.40;86.40
24250;DHT22;12379;49.820;8.648;2023-08-21T09:01:28;34.70;86.60
24250;DHT22;12379;49.820;8.648;2023-08-21T09:03:54;34.60;85.10
24250;DHT22;12379;49.820;8.648;2023-08-21T09:06:19;34.90;85.00
24250;DHT22;12379;49.820;8.648;2023-08-21T09:08:57;34.80;84.50
24250;DHT22;12379;49.820;8.648;2023-08-21T09:11:23;35.50;84.80
24250;DHT22;12379;49.820;8.648;2023-08-21T09:13:59;35.60;81.60
24250;DHT22;12379;49.820;8.648;2023-08-21T09:16:25;36.00;81.70
24250;DHT22;12379;49.820;8.648;2023-08-21T09:18:57;36.30;79.10
24250;DHT22;12379;49.820;8.648;2023-08-21T09:21:27;36.10;79.20
24250;DHT22;12379;49.820;8.648;2023-08-21T09:23:59;36.10;78.50
24250;DHT22;12379;49.820;8.648;2023-08-21T09:26:25;35.40;79.50
24250;DHT22;12379;49.820;8.648;2023-08-21T09:28:52;34.80;80.30
24250;DHT22;12379;49.820;8.648;2023-08-21T09:31:30;34.80;81.60
24250;DHT22;12379;49.820;8.648;2023-08-21T09:34:00;34.80;82.80
24250;DHT22;12379;49.820;8.648;2023-08-21T09:39:48;35.50;77.90
24250;DHT22;12379;49.820;8.648;2023-08-21T09:42:18;36.00;77.20
24250;DHT22;12379;49.820;8.648;2023-08-21T09:44:44;35.10;79.60
24250;DHT22;12379;49.820;8.648;2023-08-21T09:47:38;35.50;79.40
24250;DHT22;12379;49.820;8.648;2023-08-21T09:50:30;36.10;77.20
24250;DHT22;12379;49.820;8.648;2023-08-21T09:53:30;35.90;77.50
24250;DHT22;12379;49.820;8.648;2023-08-21T09:55:56;35.10;79.50
24250;DHT22;12379;49.820;8.648;2023-08-21T09:58:22;35.30;79.40
24250;DHT22;12379;49.820;8.648;2023-08-21T10:00:49;35.20;79.20
24250;DHT22;12379;49.820;8.648;2023-08-21T10:03:19;34.70;78.80
24250;DHT22;12379;49.820;8.648;2023-08-21T10:05:49;34.70;80.00
24250;DHT22;12379;49.820;8.648;2023-08-21T10:08:18;34.50;80.10
24250;DHT22;12379;49.820;8.648;2023-08-21T10:10:52;34.30;80.30
24250;DHT22;12379;49.820;8.648;2023-08-21T10:13:27;34.00;78.70
24250;DHT22;12379;49.820;8.648;2023-08-21T10:15:53;34.50;79.20
24250;DHT22;12379;49.820;8.648;2023-08-21T10:18:45;34.40;76.70
24250;DHT22;12379;49.820;8.648;2023-08-21T10:22:02;34.50;78.50
24250;DHT22;12379;49.820;8.648;2023-08-21T10:28:06;33.90;81.40
24250;DHT22;12379;49.820;8.648;2023-08-21T10:30:55;33.80;80.70
24250;DHT22;12379;49.820;8.648;2023-08-21T10:33:46;33.90;81.60
24250;DHT22;12379;49.820;8.648;2023-08-21T10:36:14;33.40;81.70
24250;DHT22;12379;49.820;8.648;2023-08-21T10:39:36;33.10;85.00
24250;DHT22;12379;49.820;8.648;2023-08-21T10:42:12;33.40;85.20
24250;DHT22;12379;49.820;8.648;2023-08-21T10:47:33;33.10;87.30
24250;DHT22;12379;49.820;8.648;2023-08-21T10:50:03;33.00;88.90
24250;DHT22;12379;49.820;8.648;2023-08-21T10:52:31;32.70;89.90
24250;DHT22;12379;49.820;8.648;2023-08-21T10:55:22;32.80;90.40
24250;DHT22;12379;49.820;8.648;2023-08-21T10:58:09;33.00;87.50
24250;DHT22;12379;49.820;8.648;2023-08-21T11:00:36;32.70;89.10
24250;DHT22;12379;49.820;8.648;2023-08-21T11:03:03;32.60;88.80
24250;DHT22;12379;49.820;8.648;2023-08-21T11:05:28;32.60;86.50
24250;DHT22;12379;49.820;8.648;2023-08-21T11:07:54;32.60;87.00
24250;DHT22;12379;49.820;8.648;2023-08-21T11:10:24;32.60;86.60
24250;DHT22;12379;49.820;8.648;2023-08-21T11:12:54;32.40;87.60
24250;DHT22;12379;49.820;8.648;2023-08-21T11:15:25;32.40;88.10
24250;DHT22;12379;49.820;8.648;2023-08-21T11:17:54;32.30;86.00
24250;DHT22;12379;49.820;8.648;2023-08-21T11:20:22;32.30;84.90
24250;DHT22;12379;49.820;8.648;2023-08-21T11:22:48;32.00;85.40
24250;DHT22;12379;49.820;8.648;2023-08-21T11:25:19;32.00;85.00
24250;DHT22;12379;49.820;8.648;2023-08-21T11:28:23;31.90;85.20
24250;DHT22;12379;49.820;8.648;2023-08-21T11:30:49;32.00;84.70
24250;DHT22;12379;49.820;8.648;2023-08-21T11:33:31;31.80;85.70
24250;DHT22;12379;49.820;8.648;2023-08-21T11:35:57;32.00;85.30
24250;DHT22;12379;49.820;8.648;2023-08-21T11:38:30;31.90;84.80
24250;DHT22;12379;49.820;8.648;2023-08-21T11:41:01;31.80;84.20
24250;DHT22;12379;49.820;8.648;2023-08-21T11:47:11;31.60;83.50
24250;DHT22;12379;49.820;8.648;2023-08-21T11:49:47;31.60;85.20
24250;DHT22;12379;49.820;8.648;2023-08-21T11:52:21;31.70;85.00
24250;DHT22;12379;49.820;8.648;2023-08-21T11:54:48;31.90;82.70
24250;DHT22;12379;49.820;8.648;2023-08-21T11:57:15;32.00;82.30
24250;DHT22;12379;49.820;8.648;2023-08-21T11:59:41;32.00;83.00
24250;DHT22;12379;49.820;8.648;2023-08-21T12:02:14;31.80;82.60
24250;DHT22;12379;49.820;8.648;2023-08-21T12:07:19;32.00;81.50
24250;DHT22;12379;49.820;8.648;2023-08-21T12:09:49;31.90;78.40
24250;DHT22;12379;49.820;8.648;2023-08-21T12:12:15;31.80;78.60
24250;DHT22;12379;49.820;8.648;2023-08-21T12:14:41;31.90;77.70
24250;DHT22;12379;49.820;8.648;2023-08-21T12:17:06;32.00;73.90
24250;DHT22;12379;49.820;8.648;2023-08-21T12:19:32;32.20;73.70
24250;DHT22;12379;49.820;8.648;2023-08-21T12:21:58;32.20;71.80
24250;DHT22;12379;49.820;8.648;2023-08-21T12:24:24;32.30;70.50
24250;DHT22;12379;49.820;8.648;2023-08-21T12:26:49;32.20;71.10
24250;DHT22;12379;49.820;8.648;2023-08-21T12:29:15;32.30;71.00
24250;DHT22;12379;49.820;8.648;2023-08-21T12:31:41;32.60;70.50
24250;DHT22;12379;49.820;8.648;2023-08-21T12:34:10;32.70;68.70
24250;DHT22;12379;49.820;8.648;2023-08-21T12:36:39;32.80;67.50
24250;DHT22;12379;49.820;8.648;2023-08-21T12:39:13;32.70;67.30
24250;DHT22;12379;49.820;8.648;2023-08-21T12:41:46;32.90;66.00
24250;DHT22;12379;49.820;8.648;2023-08-21T12:44:14;32.90;64.80
24250;DHT22;12379;49.820;8.648;2023-08-21T12:46:48;33.00;64.60
24250;DHT22;12379;49.820;8.648;2023-08-21T12:49:16;33.00;62.40
24250;DHT22;12379;49.820;8.648;2023-08-21T12:51:42;33.00;63.70
24250;DHT22;12379;49.820;8.648;2023-08-21T12:54:07;33.00;62.80
24250;DHT22;12379;49.820;8.648;2023-08-21T12:56:34;32.80;61.70
24250;DHT22;12379;49.820;8.648;2023-08-21T12:59:00;32.90;62.00
24250;DHT22;12379;49.820;8.648;2023-08-21T13:01:26;32.80;61.40
24250;DHT22;12379;49.820;8.648;2023-08-21T13:03:56;32.90;62.40
24250;DHT22;12379;49.820;8.648;2023-08-21T13:06:22;33.00;61.40
24250;DHT22;12379;49.820;8.648;2023-08-21T13:08:47;32.90;61.60
24250;DHT22;12379;49.820;8.648;2023-08-21T13:11:13;33.00;63.10
24250;DHT22;12379;49.820;8.648;2023-08-21T13:13:44;32.80;59.40
24250;DHT22;12379;49.820;8.648;2023-08-21T13:16:12;32.80;60.90
24250;DHT22;12379;49.820;8.648;2023-08-21T13:18:39;32.80;61.70
24250;DHT22;12379;49.820;8.648;2023-08-21T13:21:08;32.90;62.70
24250;DHT22;12379;49.820;8.648;2023-08-21T13:23:33;33.10;62.20
24250;DHT22;12379;49.820;8.648;2023-08-21T13:26:00;33.20;61.30
24250;DHT22;12379;49.820;8.648;2023-08-21T13:28:26;33.30;62.50
24250;DHT22;12379;49.820;8.648;2023-08-21T13:30:52;33.40;61.70
24250;DHT22;12379;49.820;8.648;2023-08-21T13:33:20;33.40;60.20
24250;DHT22;12379;49.820;8.648;2023-08-21T13:35:46;33.40;60.30
24250;DHT22;12379;49.820;8.648;2023-08-21T13:38:12;33.40;60.00
24250;DHT22;12379;49.820;8.648;2023-08-21T13:40:39;33.20;62.80
24250;DHT22;12379;49.820;8.648;2023-08-21T13:43:09;33.40;62.70
24250;DHT22;12379;49.820;8.648;2023-08-21T13:45:37;33.30;62.20
24250;DHT22;12379;49.820;8.648;2023-08-21T13:48:06;33.50;62.60
24250;DHT22;12379;49.820;8.648;2023-08-21T13:50:32;33.50;62.80
24250;DHT22;12379;49.820;8.648;2023-08-21T13:52:58;33.50;60.70
24250;DHT22;12379;49.820;8.648;2023-08-21T13:55:23;33.50;59.60
24250;DHT22;12379;49.820;8.648;2023-08-21T13:57:56;33.60;60.70
24250;DHT22;12379;49.820;8.648;2023-08-21T14:00:22;33.80;59.90
24250;DHT22;12379;49.820;8.648;2023-08-21T14:02:48;33.70;59.90
24250;DHT22;12379;49.820;8.648;2023-08-21T14:05:16;33.60;60.60
24250;DHT22;12379;49.820;8.648;2023-08-21T14:07:42;33.70;60.50
24250;DHT22;12379;49.820;8.648;2023-08-21T14:10:21;33.70;59.30
24250;DHT22;12379;49.820;8.648;2023-08-21T14:12:53;33.70;59.20
24250;DHT22;12379;49.820;8.648;2023-08-21T14:15:29;33.70;59.70
24250;DHT22;12379;49.820;8.648;2023-08-21T14:17:57;33.70;59.10
24250;DHT22;12379;49.820;8.648;2023-08-21T14:20:38;33.80;59.20
24250;DHT22;12379;49.820;8.648;2023-08-21T14:23:09;33.80;59.20
24250;DHT22;12379;49.820;8.648;2023-08-21T14:25:40;33.70;60.10
24250;DHT22;12379;49.820;8.648;2023-08-21T14:28:12;33.80;60.00
24250;DHT22;12379;49.820;8.648;2023-08-21T14:30:43;33.70;59.90
24250;DHT22;12379;49.820;8.648;2023-08-21T14:33:12;33.70;60.00
24250;DHT22;12379;49.820;8.648;2023-08-21T14:35:41;33.50;59.00
24250;DHT22;12379;49.820;8.648;2023-08-21T14:38:06;33.50;60.00
24250;DHT22;12379;49.820;8.648;2023-08-21T14:40:38;33.50;59.50
24250;DHT22;12379;49.820;8.648;2023-08-21T14:43:04;33.50;60.20
24250;DHT22;12379;49.820;8.648;2023-08-21T14:45:29;33.40;60.90
24250;DHT22;12379;49.820;8.648;2023-08-21T14:47:55;33.50;61.90
24250;DHT22;12379;49.820;8.648;2023-08-21T14:50:20;33.60;61.40
24250;DHT22;12379;49.820;8.648;2023-08-21T14:52:46;33.60;61.00
24250;DHT22;12379;49.820;8.648;2023-08-21T14:55:13;33.60;61.20
24250;DHT22;12379;49.820;8.648;2023-08-21T14:57:39;33.50;61.40
24250;DHT22;12379;49.820;8.648;2023-08-21T15:00:05;33.50;62.20
24250;DHT22;12379;49.820;8.648;2023-08-21T15:02:30;33.40;61.70
24250;DHT22;12379;49.820;8.648;2023-08-21T15:05:04;33.40;63.10
24250;DHT22;12379;49.820;8.648;2023-08-21T15:07:33;33.30;62.30
24250;DHT22;12379;49.820;8.648;2023-08-21T15:09:59;33.20;63.30
24250;DHT22;12379;49.820;8.648;2023-08-21T15:12:24;33.10;63.40
24250;DHT22;12379;49.820;8.648;2023-08-21T15:14:50;33.10;64.00
24250;DHT22;12379;49.820;8.648;2023-08-21T15:17:18;33.20;63.90
24250;DHT22;12379;49.820;8.648;2023-08-21T15:19:50;33.20;64.00
24250;DHT22;12379;49.820;8.648;2023-08-21T15:22:17;33.20;64.80
24250;DHT22;12379;49.820;8.648;2023-08-21T15:24:46;33.10;65.00
24250;DHT22;12379;49.820;8.648;2023-08-21T15:27:12;32.90;64.00
24250;DHT22;12379;49.820;8.648;2023-08-21T15:29:41;32.90;65.30
24250;DHT22;12379;49.820;8.648;2023-08-21T15:32:07;32.90;65.20
24250;DHT22;12379;49.820;8.648;2023-08-21T15:34:33;33.00;65.00
24250;DHT22;12379;49.820;8.648;2023-08-21T15:36:58;33.00;64.90
24250;DHT22;12379;49.820;8.648;2023-08-21T15:39:24;33.00;64.30
24250;DHT22;12379;49.820;8.648;2023-08-21T15:41:50;33.00;65.00
24250;DHT22;12379;49.820;8.648;2023-08-21T15:44:17;32.90;65.80
24250;DHT22;12379;49.820;8.648;2023-08-21T15:46:43;32.80;65.70
24250;DHT22;12379;49.820;8.648;2023-08-21T15:49:09;32.80;66.70
24250;DHT22;12379;49.820;8.648;2023-08-21T15:51:35;32.90;66.50
24250;DHT22;12379;49.820;8.648;2023-08-21T15:54:01;32.90;66.90
24250;DHT22;12379;49.820;8.648;2023-08-21T15:56:27;32.70;66.40
24250;DHT22;12379;49.820;8.648;2023-08-21T15:58:53;32.70;68.10